Time;durP1;ratioP1;P1;durP2;ratioP2;P2;SDS_P1;SDS_P2;PMS_P1;PMS_P2;Temp;Humidity;BMP_temperature;BMP_pressure;BME280_temperature;BME280_humidity;BME280_pressure;Samples;Min_cycle;Max_cycle;Signal;HPM_P1;HPM_P2
2024/03/11 00:00:15;;;;;;;58.50;34.95;;;8.60;1.00;;;;;;5033106;28;20519;-70
2024/03/11 00:02:42;;;;;;;59.47;34.63;;;8.60;1.00;;;;;;5033045;28;20391;-70
2024/03/11 00:05:08;;;;;;;58.83;34.95;;;8.60;1.00;;;;;;5032972;28;20043;-70
2024/03/11 00:07:37;;;;;;;55.67;34.78;;;8.60;1.00;;;;;;5033113;28;20509;-70
2024/03/11 00:10:05;;;;;;;54.70;33.78;;;8.60;1.00;;;;;;5032581;28;20034;-70
2024/03/11 00:12:38;;;;;;;53.95;32.97;;;8.60;1.00;;;;;;5032743;28;20139;-70
2024/03/11 00:15:07;;;;;;;58.28;34.50;;;8.60;1.00;;;;;;5032691;28;20029;-70
2024/03/11 00:17:33;;;;;;;50.53;32.35;;;8.60;1.00;;;;;;5032952;28;20068;-70
2024/03/11 00:19:58;;;;;;;55.05;33.38;;;8.50;1.00;;;;;;5032528;28;20438;-71
2024/03/11 00:22:24;;;;;;;56.22;34.05;;;8.50;1.00;;;;;;5032844;28;20033;-70
2024/03/11 00:24:49;;;;;;;55.85;33.45;;;8.50;1.00;;;;;;5032566;28;20029;-70
2024/03/11 00:27:17;;;;;;;54.97;33.53;;;8.50;1.00;;;;;;5032773;28;20034;-70
2024/03/11 00:29:42;;;;;;;60.20;35.55;;;8.50;1.00;;;;;;5032508;28;20029;-70
2024/03/11 00:32:09;;;;;;;54.05;34.47;;;8.50;1.00;;;;;;5032225;28;20100;-70
2024/03/11 00:34:34;;;;;;;54.17;33.42;;;8.50;1.00;;;;;;5032763;28;20021;-70
2024/03/11 00:37:01;;;;;;;52.03;33.22;;;8.40;1.00;;;;;;5032892;28;20541;-70
2024/03/11 00:39:27;;;;;;;56.53;35.10;;;8.40;1.00;;;;;;5033819;28;20029;-70
2024/03/11 00:41:52;;;;;;;62.28;34.97;;;8.40;1.00;;;;;;5036420;28;20033;-70
2024/03/11 00:44:22;;;;;;;57.53;35.50;;;8.40;1.00;;;;;;5036210;28;20029;-70
2024/03/11 00:46:49;;;;;;;58.30;36.45;;;8.40;10.50;;;;;;5035787;28;20025;-70
2024/03/11 00:49:16;;;;;;;60.33;37.22;;;8.30;37.00;;;;;;5036143;28;20052;-70
2024/03/11 00:51:42;;;;;;;62.38;36.35;;;8.30;52.50;;;;;;5035990;28;20372;-70
2024/03/11 00:54:07;;;;;;;63.80;37.17;;;8.20;72.70;;;;;;5036097;28;20022;-70
2024/03/11 00:56:33;;;;;;;66.22;39.20;;;8.40;96.40;;;;;;5036066;28;20040;-70
2024/03/11 00:58:59;;;;;;;65.07;38.17;;;8.30;99.90;;;;;;5035785;28;20017;-70
2024/03/11 01:01:25;;;;;;;66.63;39.00;;;8.20;99.90;;;;;;5035660;28;20468;-70
2024/03/11 01:03:53;;;;;;;65.68;38.78;;;8.20;99.90;;;;;;5036014;28;20040;-70
2024/03/11 01:06:19;;;;;;;62.53;37.58;;;8.20;99.90;;;;;;5035609;28;20547;-70
2024/03/11 01:08:45;;;;;;;67.22;39.85;;;8.20;99.90;;;;;;5035834;28;20025;-70
2024/03/11 01:11:11;;;;;;;63.55;38.17;;;8.20;99.90;;;;;;5035770;28;20091;-70
2024/03/11 01:13:37;;;;;;;66.15;39.55;;;8.10;99.90;;;;;;5035327;28;20033;-70
2024/03/11 01:16:02;;;;;;;69.50;40.20;;;8.10;99.90;;;;;;5035739;28;20028;-70
2024/03/11 01:18:28;;;;;;;71.03;40.25;;;8.10;99.90;;;;;;5035694;28;20029;-70
2024/03/11 01:20:54;;;;;;;71.10;42.05;;;8.10;99.90;;;;;;5035633;28;20021;-70
2024/03/11 01:23:20;;;;;;;74.50;40.40;;;8.20;99.90;;;;;;5035732;28;20495;-70
2024/03/11 01:25:46;;;;;;;75.63;42.13;;;8.10;99.90;;;;;;5035563;28;20067;-70
2024/03/11 01:28:12;;;;;;;75.93;42.22;;;8.10;99.90;;;;;;5035499;28;20057;-70
2024/03/11 01:30:38;;;;;;;73.80;41.88;;;8.10;99.90;;;;;;5035395;28;20037;-70
2024/03/11 01:33:05;;;;;;;72.88;41.58;;;8.20;99.90;;;;;;5034940;28;20103;-70
2024/03/11 01:35:31;;;;;;;74.43;42.90;;;8.20;99.90;;;;;;5035468;28;20425;-70
2024/03/11 01:37:57;;;;;;;72.70;42.38;;;8.20;99.90;;;;;;5035024;28;20131;-70
2024/03/11 01:40:23;;;;;;;76.95;42.00;;;8.10;99.90;;;;;;5035031;28;20388;-70
2024/03/11 01:42:50;;;;;;;73.95;42.25;;;8.10;99.90;;;;;;5035334;28;20505;-70
2024/03/11 01:45:17;;;;;;;78.10;43.55;;;8.10;99.90;;;;;;5035133;28;20025;-70
2024/03/11 01:47:43;;;;;;;77.85;43.75;;;8.00;99.90;;;;;;5034762;28;20030;-70
2024/03/11 01:50:13;;;;;;;78.90;44.05;;;8.00;99.90;;;;;;5035155;28;20025;-70
2024/03/11 01:52:44;;;;;;;81.00;43.72;;;8.00;99.90;;;;;;5034768;28;20029;-70
2024/03/11 01:55:10;;;;;;;81.45;45.15;;;8.00;99.90;;;;;;5034618;28;20391;-70
2024/03/11 01:57:36;;;;;;;82.82;45.33;;;8.00;99.90;;;;;;5034620;28;20025;-70
2024/03/11 02:00:08;;;;;;;84.03;47.17;;;8.00;99.90;;;;;;5034637;28;20021;-71
2024/03/11 02:02:35;;;;;;;81.93;43.60;;;7.90;99.90;;;;;;5034993;28;20068;-70
2024/03/11 02:05:01;;;;;;;82.28;44.95;;;8.00;99.90;;;;;;5034750;28;20021;-70
2024/03/11 02:07:29;;;;;;;82.55;45.05;;;7.90;99.90;;;;;;5034927;28;20029;-70
2024/03/11 02:09:54;;;;;;;84.75;45.65;;;7.90;99.90;;;;;;5034700;28;20026;-70
2024/03/11 02:12:20;;;;;;;86.78;47.13;;;7.90;99.90;;;;;;5034525;28;20087;-70
2024/03/11 02:14:46;;;;;;;82.47;45.80;;;7.90;99.90;;;;;;5034256;28;20396;-70
2024/03/11 02:17:13;;;;;;;82.75;46.03;;;7.80;99.90;;;;;;5034506;28;20030;-70
2024/03/11 02:19:40;;;;;;;87.35;48.00;;;7.80;99.90;;;;;;5034278;28;20029;-70
2024/03/11 02:22:08;;;;;;;84.50;45.33;;;7.90;99.90;;;;;;5034193;28;20033;-70
2024/03/11 02:24:35;;;;;;;87.18;47.40;;;7.80;99.90;;;;;;5034505;28;20509;-71
2024/03/11 02:27:02;;;;;;;84.68;45.70;;;7.80;99.90;;;;;;5034409;28;20377;-71
2024/03/11 02:29:28;;;;;;;86.40;47.53;;;7.80;99.90;;;;;;5034615;28;20033;-71
2024/03/11 02:31:54;;;;;;;84.63;47.15;;;7.80;99.90;;;;;;5033744;28;20073;-70
2024/03/11 02:34:20;;;;;;;86.30;49.25;;;7.80;99.90;;;;;;5034190;28;20072;-70
2024/03/11 02:36:47;;;;;;;85.95;48.20;;;7.80;99.90;;;;;;5034350;28;20079;-70
2024/03/11 02:39:15;;;;;;;93.03;49.90;;;7.80;99.90;;;;;;5034081;28;20033;-70
2024/03/11 02:41:42;;;;;;;85.18;45.63;;;7.80;99.90;;;;;;5034169;28;20391;-70
2024/03/11 02:44:08;;;;;;;86.53;49.05;;;7.80;99.90;;;;;;5033757;28;20025;-70
2024/03/11 02:46:34;;;;;;;92.30;49.42;;;7.80;99.90;;;;;;5034093;28;20083;-70
2024/03/11 02:49:00;;;;;;;95.28;50.00;;;7.80;99.90;;;;;;5034072;28;20442;-70
2024/03/11 02:51:25;;;;;;;94.22;49.08;;;7.80;99.90;;;;;;5033883;28;20026;-70
2024/03/11 02:53:51;;;;;;;95.00;50.25;;;7.80;99.90;;;;;;5033913;28;20029;-70
2024/03/11 02:56:17;;;;;;;90.13;49.55;;;7.80;99.90;;;;;;5033558;28;20502;-70
2024/03/11 02:58:43;;;;;;;91.60;48.58;;;7.80;99.90;;;;;;5033883;28;20030;-70
2024/03/11 03:01:09;;;;;;;92.82;49.78;;;7.80;99.90;;;;;;5033771;28;20029;-70
2024/03/11 03:03:35;;;;;;;94.32;50.20;;;7.80;99.90;;;;;;5033313;28;20032;-70
2024/03/11 03:06:01;;;;;;;96.57;52.38;;;7.80;99.90;;;;;;5033365;28;20026;-69
2024/03/11 03:08:27;;;;;;;102.10;54.53;;;7.80;99.90;;;;;;5033706;28;20037;-69
2024/03/11 03:10:53;;;;;;;95.15;52.25;;;7.70;99.90;;;;;;5033670;28;20033;-69
2024/03/11 03:13:19;;;;;;;94.40;51.33;;;7.70;99.90;;;;;;5033357;28;20048;-69
2024/03/11 03:15:45;;;;;;;103.78;54.72;;;7.70;99.90;;;;;;5033514;28;20028;-69
2024/03/11 03:18:11;;;;;;;98.85;51.67;;;7.70;99.90;;;;;;5033461;28;20112;-69
2024/03/11 03:20:38;;;;;;;99.22;51.22;;;7.70;99.90;;;;;;5033470;28;20029;-69
2024/03/11 03:23:03;;;;;;;104.63;53.47;;;7.70;99.90;;;;;;5033530;28;20036;-69
2024/03/11 03:25:33;;;;;;;98.43;51.05;;;7.70;99.90;;;;;;5033470;28;20412;-69
2024/03/11 03:28:02;;;;;;;104.30;52.08;;;7.70;99.90;;;;;;5033371;28;20384;-69
2024/03/11 03:30:28;;;;;;;108.32;52.85;;;7.70;99.90;;;;;;5033266;28;20033;-70
2024/03/11 03:32:54;;;;;;;106.20;53.20;;;7.60;99.90;;;;;;5032837;28;20512;-69
2024/03/11 03:35:20;;;;;;;103.63;52.25;;;7.60;99.90;;;;;;5033467;28;20388;-69
2024/03/11 03:37:46;;;;;;;107.53;54.00;;;7.70;99.90;;;;;;5033333;28;20041;-69
2024/03/11 03:40:18;;;;;;;104.13;53.30;;;7.60;99.90;;;;;;5033325;28;20040;-69
2024/03/11 03:42:46;;;;;;;109.68;53.47;;;7.60;99.90;;;;;;5033218;28;20067;-69
2024/03/11 03:45:12;;;;;;;104.40;53.13;;;7.60;99.90;;;;;;5033162;28;20031;-69
2024/03/11 03:47:38;;;;;;;103.38;53.45;;;7.60;99.90;;;;;;5033273;28;20377;-69
2024/03/11 03:50:04;;;;;;;113.45;54.80;;;7.60;99.90;;;;;;5032820;28;20036;-69
2024/03/11 03:52:29;;;;;;;112.53;55.70;;;7.60;99.90;;;;;;5033022;28;20051;-69
2024/03/11 03:54:55;;;;;;;106.50;55.65;;;7.50;99.90;;;;;;5033169;28;20030;-69
2024/03/11 03:57:21;;;;;;;116.85;57.05;;;7.50;99.90;;;;;;5033210;28;20029;-69
2024/03/11 03:59:48;;;;;;;111.13;56.70;;;7.50;99.90;;;;;;5032805;28;20049;-69
2024/03/11 04:02:14;;;;;;;118.95;58.67;;;7.50;99.90;;;;;;5033063;28;20037;-69
2024/03/11 04:04:40;;;;;;;114.95;56.45;;;7.50;99.90;;;;;;5032709;28;20025;-69
2024/03/11 04:07:06;;;;;;;110.20;56.65;;;7.50;99.90;;;;;;5033154;28;20108;-69
2024/03/11 04:09:31;;;;;;;113.90;58.00;;;7.50;99.90;;;;;;5032669;28;20057;-69
2024/03/11 04:11:57;;;;;;;115.30;57.33;;;7.50;99.90;;;;;;5032610;28;20075;-69
2024/03/11 04:14:22;;;;;;;110.30;55.17;;;7.50;99.90;;;;;;5033990;28;20108;-69
2024/03/11 04:16:48;;;;;;;109.28;57.10;;;7.60;99.90;;;;;;5036837;28;20039;-69
2024/03/11 04:19:14;;;;;;;109.10;53.58;;;7.50;99.90;;;;;;5036719;28;20022;-69
2024/03/11 04:21:39;;;;;;;108.63;54.35;;;7.50;99.90;;;;;;5036263;28;20026;-69
2024/03/11 04:24:05;;;;;;;101.88;52.28;;;7.50;99.90;;;;;;5036743;28;20112;-69
2024/03/11 04:26:31;;;;;;;106.57;54.75;;;7.50;99.90;;;;;;5036281;28;20373;-69
2024/03/11 04:28:58;;;;;;;115.93;57.00;;;7.50;99.90;;;;;;5036313;28;20025;-69
2024/03/11 04:31:24;;;;;;;109.45;55.28;;;7.50;99.90;;;;;;5036459;28;20507;-68
2024/03/11 04:33:50;;;;;;;109.53;55.60;;;7.50;99.90;;;;;;5036431;28;20026;-69
2024/03/11 04:36:17;;;;;;;109.22;55.75;;;7.50;99.90;;;;;;5036505;28;20076;-69
2024/03/11 04:38:42;;;;;;;119.43;58.45;;;7.60;99.90;;;;;;5036459;28;20053;-69
2024/03/11 04:41:08;;;;;;;118.40;57.05;;;7.50;99.90;;;;;;5036457;28;20033;-69
2024/03/11 04:43:36;;;;;;;120.03;58.15;;;7.50;99.90;;;;;;5035940;28;20021;-69
2024/03/11 04:46:02;;;;;;;115.07;56.97;;;7.50;99.90;;;;;;5036251;28;20494;-69
2024/03/11 04:48:28;;;;;;;117.15;56.00;;;7.50;99.90;;;;;;5036222;28;20029;-68
2024/03/11 04:50:53;;;;;;;112.97;56.03;;;7.50;99.90;;;;;;5036154;28;20083;-69
2024/03/11 04:53:19;;;;;;;112.82;56.70;;;7.50;99.90;;;;;;5035635;28;20453;-69
2024/03/11 04:55:46;;;;;;;120.82;57.50;;;7.50;99.90;;;;;;5036018;28;20506;-68
2024/03/11 04:58:12;;;;;;;123.35;57.38;;;7.50;99.90;;;;;;5035649;28;20051;-69
2024/03/11 05:00:38;;;;;;;120.10;57.95;;;7.50;99.90;;;;;;5035939;28;20084;-69
2024/03/11 05:03:05;;;;;;;120.40;57.88;;;7.50;99.90;;;;;;5035505;28;20029;-69
2024/03/11 05:05:31;;;;;;;117.68;56.97;;;7.50;99.90;;;;;;5036063;28;20036;-69
2024/03/11 05:07:57;;;;;;;123.18;60.05;;;7.50;99.90;;;;;;5035585;28;20026;-69
2024/03/11 05:10:24;;;;;;;124.53;59.90;;;7.50;99.90;;;;;;5035942;28;20034;-69
2024/03/11 05:12:49;;;;;;;120.57;58.80;;;7.50;99.90;;;;;;5035591;28;20025;-68
2024/03/11 05:15:17;;;;;;;121.68;58.75;;;7.50;99.90;;;;;;5035718;28;20075;-69
2024/03/11 05:17:42;;;;;;;121.32;60.28;;;7.50;99.90;;;;;;5035648;28;20052;-69
2024/03/11 05:20:11;;;;;;;129.68;61.83;;;7.50;99.90;;;;;;5035721;28;20554;-69
2024/03/11 05:22:38;;;;;;;123.25;60.85;;;7.50;99.90;;;;;;5035707;28;20028;-69
2024/03/11 05:25:06;;;;;;;118.00;57.95;;;7.50;99.90;;;;;;5035190;28;20068;-69
2024/03/11 05:27:32;;;;;;;121.07;60.42;;;7.60;99.90;;;;;;5035497;28;20491;-69
2024/03/11 05:30:00;;;;;;;131.93;61.45;;;7.50;99.90;;;;;;5035155;28;20041;-69
2024/03/11 05:32:26;;;;;;;125.68;61.72;;;7.60;99.90;;;;;;5035157;28;20140;-69
2024/03/11 05:34:51;;;;;;;130.02;60.65;;;7.60;99.90;;;;;;5035365;28;20108;-69
2024/03/11 05:37:18;;;;;;;129.10;62.83;;;7.60;99.90;;;;;;5035326;28;20128;-69
2024/03/11 05:39:44;;;;;;;136.15;63.17;;;7.60;99.90;;;;;;5034869;28;20559;-69
2024/03/11 05:42:09;;;;;;;131.05;61.55;;;7.60;99.90;;;;;;5035359;28;20116;-69
2024/03/11 05:44:35;;;;;;;134.10;61.78;;;7.60;99.90;;;;;;5035215;28;20060;-69
2024/03/11 05:47:01;;;;;;;122.97;60.30;;;7.60;99.90;;;;;;5035141;28;20112;-68
2024/03/11 05:49:28;;;;;;;131.25;62.03;;;7.60;99.90;;;;;;5035189;28;20036;-69
2024/03/11 05:51:55;;;;;;;136.05;62.65;;;7.60;99.90;;;;;;5034976;28;20022;-69
2024/03/11 05:54:23;;;;;;;124.97;61.03;;;7.60;99.90;;;;;;5034540;28;20115;-69
2024/03/11 05:56:56;;;;;;;129.07;61.33;;;7.60;99.90;;;;;;5034950;28;20040;-69
2024/03/11 05:59:23;;;;;;;124.22;60.33;;;7.60;99.90;;;;;;5034835;28;20032;-69
2024/03/11 06:01:49;;;;;;;122.00;60.33;;;7.60;99.90;;;;;;5034743;28;20048;-69
2024/03/11 06:04:16;;;;;;;119.38;58.33;;;7.60;99.90;;;;;;5034397;28;20497;-69
2024/03/11 06:06:45;;;;;;;124.30;60.20;;;7.70;99.90;;;;;;5034834;28;20491;-69
2024/03/11 06:09:12;;;;;;;118.93;58.78;;;7.70;99.90;;;;;;5034739;28;20033;-69
2024/03/11 06:11:40;;;;;;;122.80;59.15;;;7.70;99.90;;;;;;5034732;28;20033;-69
2024/03/11 06:14:07;;;;;;;121.68;58.85;;;7.70;99.90;;;;;;5034379;28;20543;-69
2024/03/11 06:16:33;;;;;;;122.68;59.60;;;7.60;99.90;;;;;;5034729;28;20035;-69
2024/03/11 06:18:59;;;;;;;127.45;59.70;;;7.70;99.90;;;;;;5034140;28;20468;-69
2024/03/11 06:21:25;;;;;;;127.40;62.17;;;7.70;99.90;;;;;;5034310;28;20025;-69
2024/03/11 06:23:51;;;;;;;122.65;60.50;;;7.70;99.90;;;;;;5034308;28;20125;-69
2024/03/11 06:26:17;;;;;;;118.32;57.88;;;7.70;99.90;;;;;;5034451;28;20084;-69
2024/03/11 06:28:42;;;;;;;125.97;61.30;;;7.70;99.90;;;;;;5034464;28;20048;-69
2024/03/11 06:31:08;;;;;;;122.65;62.00;;;7.70;99.90;;;;;;5034288;28;20056;-69
2024/03/11 06:33:35;;;;;;;119.05;60.40;;;7.70;99.90;;;;;;5034140;28;20059;-69
2024/03/11 06:36:01;;;;;;;118.95;60.33;;;7.80;99.90;;;;;;5033971;28;20139;-69
2024/03/11 06:38:27;;;;;;;123.15;59.28;;;7.80;99.90;;;;;;5033641;28;20102;-69
2024/03/11 06:40:53;;;;;;;120.38;60.05;;;7.80;99.90;;;;;;5034227;28;20037;-69
2024/03/11 06:43:18;;;;;;;125.50;62.08;;;7.70;99.90;;;;;;5033174;28;20025;-69
2024/03/11 06:45:46;;;;;;;127.88;62.88;;;7.70;99.90;;;;;;5032323;28;20553;-69
2024/03/11 06:48:12;;;;;;;131.38;64.30;;;7.70;99.90;;;;;;5032872;28;20463;-69
2024/03/11 06:50:38;;;;;;;133.43;63.10;;;7.70;99.90;;;;;;5039391;28;20068;-69
2024/03/11 06:53:06;;;;;;;141.07;64.90;;;7.80;99.90;;;;;;5034465;28;20399;-69
2024/03/11 06:55:32;;;;;;;132.02;62.25;;;7.80;99.90;;;;;;5032863;28;20060;-69
2024/03/11 06:57:58;;;;;;;121.05;59.10;;;7.80;99.90;;;;;;5032866;28;20616;-69
2024/03/11 07:00:25;;;;;;;128.50;62.35;;;7.80;99.90;;;;;;5030694;28;20026;-69
2024/03/11 07:02:50;;;;;;;130.57;62.10;;;7.80;99.90;;;;;;5035803;28;20060;-69
2024/03/11 07:05:18;;;;;;;131.02;62.53;;;7.90;99.90;;;;;;5033818;28;20033;-69
2024/03/11 07:07:44;;;;;;;136.38;62.53;;;7.80;99.90;;;;;;5029682;28;20408;-69
2024/03/11 07:10:12;;;;;;;136.93;63.30;;;7.80;99.90;;;;;;5031275;28;20068;-69
2024/03/11 07:12:42;;;;;;;137.57;64.65;;;7.80;99.90;;;;;;5047995;28;20138;-69
2024/03/11 07:15:09;;;;;;;140.13;65.15;;;7.70;99.90;;;;;;5040801;28;20514;-69
2024/03/11 07:17:34;;;;;;;144.35;66.43;;;7.80;99.90;;;;;;5034959;28;20108;-69
2024/03/11 07:20:00;;;;;;;145.15;66.05;;;7.80;99.90;;;;;;5033564;28;20064;-69
2024/03/11 07:22:26;;;;;;;146.85;68.28;;;7.80;99.90;;;;;;5032799;28;20030;-69
2024/03/11 07:24:51;;;;;;;150.52;69.75;;;7.70;99.90;;;;;;5033189;28;20044;-69
2024/03/11 07:27:17;;;;;;;144.68;65.95;;;7.80;99.90;;;;;;5032893;28;20030;-69
2024/03/11 07:29:43;;;;;;;147.50;66.35;;;7.70;99.90;;;;;;5038979;28;20032;-68
2024/03/11 07:32:11;;;;;;;149.40;68.18;;;7.70;99.90;;;;;;5040072;28;20571;-68
2024/03/11 07:34:39;;;;;;;163.32;70.40;;;7.80;99.90;;;;;;5046079;28;20022;-68
2024/03/11 07:37:06;;;;;;;160.00;69.13;;;7.70;99.90;;;;;;5033099;28;20104;-69
2024/03/11 07:39:31;;;;;;;157.38;71.57;;;7.70;99.90;;;;;;5031846;28;20025;-68
2024/03/11 07:41:57;;;;;;;161.68;70.28;;;7.70;99.90;;;;;;5031378;28;20033;-69
2024/03/11 07:44:24;;;;;;;174.35;73.43;;;7.70;99.90;;;;;;5032675;28;20033;-70
2024/03/11 07:46:50;;;;;;;167.52;74.50;;;7.70;99.90;;;;;;5033474;28;20034;-68
2024/03/11 07:49:17;;;;;;;167.43;72.85;;;7.70;99.90;;;;;;5034131;28;20437;-68
2024/03/11 07:51:43;;;;;;;168.60;71.72;;;7.70;99.90;;;;;;5034594;28;20071;-68
2024/03/11 07:54:11;;;;;;;173.32;75.93;;;7.80;99.90;;;;;;5034707;28;20033;-69
2024/03/11 07:56:37;;;;;;;166.90;72.10;;;7.80;99.90;;;;;;5032541;28;20108;-67
2024/03/11 07:59:05;;;;;;;170.15;73.80;;;7.90;99.90;;;;;;5034209;28;20472;-67
2024/03/11 08:01:31;;;;;;;168.75;74.32;;;7.90;99.90;;;;;;5029690;28;20469;-69
2024/03/11 08:03:57;;;;;;;172.60;72.05;;;7.90;99.90;;;;;;5029332;28;20078;-67
2024/03/11 08:06:24;;;;;;;167.00;73.03;;;7.90;99.90;;;;;;5031589;28;20321;-69
2024/03/11 08:08:52;;;;;;;177.65;76.30;;;7.90;99.90;;;;;;5036808;28;20465;-68
2024/03/11 08:11:19;;;;;;;182.20;76.65;;;7.90;99.90;;;;;;5033142;28;20124;-68
2024/03/11 08:13:45;;;;;;;174.57;76.50;;;7.90;99.90;;;;;;5030235;28;20160;-66
2024/03/11 08:16:11;;;;;;;174.32;74.25;;;8.00;99.90;;;;;;5029849;28;20113;-68
2024/03/11 08:18:42;;;;;;;172.50;77.68;;;8.00;99.90;;;;;;5032965;28;20108;-66
2024/03/11 08:21:10;;;;;;;169.18;73.35;;;8.00;99.90;;;;;;5033405;28;20087;-66
2024/03/11 08:23:37;;;;;;;171.27;75.07;;;8.00;99.90;;;;;;5026881;28;20064;-66
2024/03/11 08:26:06;;;;;;;176.13;76.72;;;7.90;99.90;;;;;;5025061;28;20026;-67
2024/03/11 08:28:32;;;;;;;176.52;75.70;;;7.90;99.90;;;;;;5028556;28;20091;-68
2024/03/11 08:30:58;;;;;;;169.77;74.05;;;7.90;99.90;;;;;;5030501;28;20118;-67
2024/03/11 08:33:24;;;;;;;180.52;77.75;;;8.00;99.90;;;;;;5029396;28;20051;-69
2024/03/11 08:35:51;;;;;;;186.15;76.82;;;8.00;99.90;;;;;;5031832;28;20032;-67
2024/03/11 08:38:17;;;;;;;182.23;77.55;;;8.00;99.90;;;;;;5043165;28;20385;-68
2024/03/11 08:40:43;;;;;;;179.13;75.90;;;8.00;99.90;;;;;;5033476;28;20021;-68
2024/03/11 08:43:09;;;;;;;176.45;75.25;;;8.00;99.90;;;;;;5030633;28;20388;-70
2024/03/11 08:45:35;;;;;;;179.27;73.22;;;8.10;99.90;;;;;;5033462;28;20031;-69
2024/03/11 08:48:00;;;;;;;176.35;73.63;;;8.10;99.90;;;;;;5031159;28;20029;-66
2024/03/11 08:50:26;;;;;;;176.57;72.20;;;8.10;99.90;;;;;;5032495;28;20033;-68
2024/03/11 08:52:52;;;;;;;175.77;74.57;;;8.20;99.90;;;;;;5031729;28;20037;-67
2024/03/11 08:55:17;;;;;;;177.23;74.50;;;8.20;99.90;;;;;;5031212;28;20029;-67
2024/03/11 08:57:45;;;;;;;162.77;71.95;;;8.20;99.90;;;;;;5033692;28;20037;-68
2024/03/11 09:00:12;;;;;;;169.77;73.63;;;8.20;99.90;;;;;;5031052;28;21232;-68
2024/03/11 09:02:39;;;;;;;173.30;71.07;;;8.20;99.90;;;;;;5032599;28;20021;-67
2024/03/11 09:05:12;;;;;;;154.60;67.55;;;8.20;99.90;;;;;;5031872;28;20029;-69
2024/03/11 09:07:40;;;;;;;;;;;8.20;99.90;;;;;;5033843;28;20407;-69
2024/03/11 09:10:07;;;;;;;145.98;61.83;;;8.20;99.90;;;;;;5030679;28;19924;-70
2024/03/11 09:12:33;;;;;;;154.55;65.65;;;8.20;99.90;;;;;;5032508;28;20036;-68
2024/03/11 09:14:59;;;;;;;149.10;64.32;;;8.20;99.90;;;;;;5030247;28;20025;-70
2024/03/11 09:17:25;;;;;;;148.35;64.53;;;8.30;99.90;;;;;;5034033;28;20399;-68
2024/03/11 09:19:54;;;;;;;149.70;63.38;;;8.30;99.90;;;;;;5031142;28;20029;-70
2024/03/11 09:22:21;;;;;;;151.52;62.80;;;8.40;99.90;;;;;;5033665;28;20029;-69
2024/03/11 09:24:46;;;;;;;145.90;59.45;;;8.40;99.90;;;;;;5033171;28;20535;-69
2024/03/11 09:27:12;;;;;;;142.90;61.97;;;8.50;99.90;;;;;;5029808;28;20113;-70
2024/03/11 09:29:38;;;;;;;135.20;60.22;;;8.50;99.90;;;;;;5032464;28;20119;-70
2024/03/11 09:32:05;;;;;;;128.98;55.80;;;8.50;99.90;;;;;;5031267;28;20050;-69
2024/03/11 09:34:31;;;;;;;127.95;56.17;;;8.50;99.90;;;;;;5033928;28;20108;-70
2024/03/11 09:36:57;;;;;;;124.47;55.42;;;8.60;99.90;;;;;;5030913;28;20036;-70
2024/03/11 09:39:23;;;;;;;119.88;57.17;;;8.50;99.90;;;;;;5032547;28;20025;-68
2024/03/11 09:41:49;;;;;;;117.28;53.72;;;8.60;99.90;;;;;;5032919;28;20108;-69
2024/03/11 09:44:18;;;;;;;121.03;53.50;;;8.70;99.90;;;;;;5033155;28;20029;-69
2024/03/11 09:46:45;;;;;;;113.35;51.50;;;8.80;99.90;;;;;;5033109;28;20032;-70
2024/03/11 09:49:14;;;;;;;110.50;51.63;;;8.80;99.90;;;;;;5033739;28;20029;-68
2024/03/11 09:51:45;;;;;;;107.45;49.30;;;8.80;99.90;;;;;;5031490;28;20108;-69
2024/03/11 09:54:13;;;;;;;97.80;46.50;;;8.80;99.90;;;;;;5031238;28;20040;-68
2024/03/11 09:56:41;;;;;;;99.70;47.20;;;8.70;99.90;;;;;;5032005;28;20463;-70
2024/03/11 09:59:09;;;;;;;95.35;46.22;;;8.70;99.90;;;;;;5025293;28;20113;-68
2024/03/11 10:01:42;;;;;;;90.93;46.67;;;8.70;99.90;;;;;;5026339;28;20029;-67
2024/03/11 10:04:09;;;;;;;95.63;46.08;;;8.70;99.90;;;;;;5030060;28;20132;-69
2024/03/11 10:06:39;;;;;;;90.20;44.47;;;8.70;99.90;;;;;;5029235;28;20038;-69
2024/03/11 10:09:08;;;;;;;84.38;40.45;;;8.80;99.90;;;;;;5027430;28;20139;-68
2024/03/11 10:11:35;;;;;;;82.03;40.15;;;8.80;99.90;;;;;;5028220;28;20033;-70
2024/03/11 10:14:19;;;;;;;76.53;39.42;;;8.90;99.90;;;;;;5027967;28;20055;-69
2024/03/11 10:16:44;;;;;;;76.30;38.22;;;9.00;99.90;;;;;;5029155;28;20033;-71
2024/03/11 10:19:11;;;;;;;66.68;34.20;;;9.10;99.90;;;;;;5025423;28;20403;-69
2024/03/11 10:21:38;;;;;;;69.15;35.80;;;9.20;99.90;;;;;;5028110;28;20049;-70
2024/03/11 10:24:05;;;;;;;59.65;32.08;;;9.30;99.90;;;;;;5030560;28;20038;-70
2024/03/11 10:26:40;;;;;;;58.28;30.27;;;9.30;99.90;;;;;;5028406;28;20454;-69
2024/03/11 10:29:07;;;;;;;53.08;29.50;;;9.30;99.90;;;;;;5029376;28;20447;-69
2024/03/11 10:31:35;;;;;;;52.85;29.38;;;9.30;99.90;;;;;;5030245;28;20110;-70
2024/03/11 10:34:20;;;;;;;51.80;29.15;;;9.40;99.90;;;;;;5028053;28;20076;-68
2024/03/11 10:36:55;;;;;;;48.90;27.27;;;9.40;99.90;;;;;;5029939;28;20713;-67
2024/03/11 10:41:50;;;;;;;45.28;26.17;;;9.30;99.90;;;;;;5027529;28;20440;-70
2024/03/11 10:44:19;;;;;;;49.22;27.02;;;9.20;99.90;;;;;;5030291;28;20760;-70
2024/03/11 10:46:45;;;;;;;47.17;26.10;;;9.10;99.90;;;;;;5024231;28;20471;-69
2024/03/11 10:49:12;;;;;;;43.92;23.50;;;9.00;99.90;;;;;;5030416;28;20033;-70
2024/03/11 10:51:47;;;;;;;44.85;24.77;;;9.00;99.90;;;;;;5029744;28;20065;-72
2024/03/11 10:54:20;;;;;;;41.83;24.25;;;9.00;99.90;;;;;;5028570;28;20029;-70
2024/03/11 10:56:46;;;;;;;42.80;24.40;;;9.00;99.90;;;;;;5030182;28;20195;-69
2024/03/11 10:59:15;;;;;;;42.40;24.17;;;9.00;99.90;;;;;;5027543;28;20088;-72
2024/03/11 11:01:46;;;;;;;41.92;23.85;;;9.00;99.90;;;;;;5028035;28;20112;-69
2024/03/11 11:04:14;;;;;;;42.17;23.38;;;9.00;99.90;;;;;;5028308;28;20495;-71
2024/03/11 11:06:43;;;;;;;44.55;23.60;;;8.90;99.90;;;;;;5024465;28;20028;-71
2024/03/11 11:09:11;;;;;;;42.05;22.35;;;9.00;99.90;;;;;;5026098;28;20103;-69
2024/03/11 11:11:41;;;;;;;40.20;23.27;;;8.90;99.90;;;;;;5027499;28;20545;-70
2024/03/11 11:14:11;;;;;;;45.20;24.10;;;9.00;99.90;;;;;;5029897;28;20208;-70
2024/03/11 11:16:38;;;;;;;45.78;25.38;;;9.00;99.90;;;;;;5026839;28;20072;-69
2024/03/11 11:19:04;;;;;;;46.33;25.00;;;9.00;99.90;;;;;;5028939;28;20450;-69
2024/03/11 11:21:31;;;;;;;45.40;24.95;;;9.00;99.90;;;;;;5028348;28;20030;-70
2024/03/11 11:24:26;;;;;;;44.05;24.92;;;9.00;99.90;;;;;;5028465;28;20552;-69
2024/03/11 11:26:55;;;;;;;42.88;23.60;;;9.00;99.90;;;;;;5027574;28;20033;-69
2024/03/11 11:29:25;;;;;;;40.80;23.63;;;9.10;99.90;;;;;;5027743;28;20045;-70
2024/03/11 11:32:08;;;;;;;38.25;23.20;;;9.00;99.90;;;;;;5028320;28;20407;-71
2024/03/11 11:34:51;;;;;;;43.20;24.17;;;9.00;99.90;;;;;;5025649;28;20048;-70
2024/03/11 11:39:56;;;;;;;35.65;20.77;;;9.00;99.90;;;;;;5119613;27;21146;-71
2024/03/11 11:42:39;;;;;;;26.33;15.82;;;9.00;99.90;;;;;;5101149;28;20062;-71
2024/03/11 11:45:06;;;;;;;17.05;11.00;;;8.90;99.90;;;;;;5107333;28;20023;-72
2024/03/11 11:47:33;;;;;;;15.35;10.20;;;8.90;99.90;;;;;;5106499;28;20027;-73
2024/03/11 11:49:59;;;;;;;14.35;9.60;;;8.90;99.90;;;;;;5106048;28;20031;-71
2024/03/11 11:52:26;;;;;;;15.70;9.73;;;8.90;99.90;;;;;;5104955;28;20038;-73
2024/03/11 11:54:52;;;;;;;13.32;8.32;;;8.90;99.90;;;;;;5107091;28;20027;-71
2024/03/11 11:57:21;;;;;;;10.52;7.05;;;8.80;99.90;;;;;;5105524;28;20111;-73
2024/03/11 12:02:33;;;;;;;6.68;4.70;;;8.80;99.90;;;;;;5121041;27;21134;-73
2024/03/11 12:05:00;;;;;;;5.10;3.78;;;8.70;99.90;;;;;;5106559;28;20032;-74
2024/03/11 12:07:28;;;;;;;4.20;3.38;;;8.70;99.90;;;;;;5107234;28;20481;-75
2024/03/11 12:09:57;;;;;;;2.97;2.20;;;8.60;99.90;;;;;;5105119;28;20040;-70
2024/03/11 12:12:28;;;;;;;2.25;1.70;;;8.60;99.90;;;;;;5110432;28;20040;-69
2024/03/11 12:14:55;;;;;;;2.17;1.63;;;8.50;99.90;;;;;;5107804;28;20016;-68
2024/03/11 12:17:21;;;;;;;2.25;1.73;;;8.40;99.90;;;;;;5104029;28;20042;-69
2024/03/11 12:19:46;;;;;;;3.40;1.40;;;8.40;99.90;;;;;;5104683;28;20389;-69
2024/03/11 12:22:13;;;;;;;2.08;1.67;;;8.30;99.90;;;;;;5105735;28;20032;-75
2024/03/11 12:24:41;;;;;;;2.08;1.80;;;8.30;99.90;;;;;;5105652;28;20020;-72
2024/03/11 12:27:12;;;;;;;2.92;1.77;;;8.40;99.90;;;;;;5104119;28;20395;-72
2024/03/11 12:29:39;;;;;;;1.85;1.75;;;8.50;99.90;;;;;;5102236;28;20385;-71
2024/03/11 12:32:11;;;;;;;2.10;1.75;;;8.60;99.90;;;;;;5111920;28;20035;-67
2024/03/11 12:34:38;;;;;;;2.08;1.90;;;8.70;99.90;;;;;;5109658;28;20478;-71
2024/03/11 12:37:04;;;;;;;2.20;2.00;;;8.80;99.90;;;;;;5107736;28;20055;-71
2024/03/11 12:39:47;;;;;;;5.03;3.30;;;8.80;99.90;;;;;;5107063;28;20039;-73